Enter the Airport ICAO Code

Search by Airport or City

Current Weather

PAEN | Kenai Municipal Airport

Kenai, Alaska, United States

Last Update 22 Minutes Ago

Partly Cloudy Sky

Temperature of 15 ºC Below Zero

Light to Moderate Winds from NorthEast

Temperature

15 ºC Below Zero

Dew Point Temperature

18 ºC Below Zero

Relative Humidity

77.36 %

Wind Direction

NorthEast (030º, Without Significant Variations)

Wind Velocity

15 km/h (08 kt)

Gusts

None

Visibility

Greater than 10 Miles

Sea Level Pressure

29.66 inHg (Inches of Mercury)

Layers of Clouds

30% to 60% of Sky Covered from 244 mts (800 ft) Above Ground Level.

METAR PAEN 052100Z 03008KT 10SM SCT008 M15/M18 A2966 RMK AO2 T11501183

Weather Forecast

PAEN | Kenai Municipal Airport

Kenai, Alaska, United States

Forecast valid for the next 21 Hours

From now on it is expected:

Clear Sky

Light to Moderate Winds from NorthEast

In 6 hours it is expected the begining of:

Moderate Winds from NorthEast

In 18 hours it is expected the begining of:

Mostly Cloudy Sky

Moderate Winds from NorthEast with Gusts

Maximum Temperature

No Data

Minimum Temperature

No Data

TAF PAEN 051740Z 0518/0618 06008KT P6SM SKC FM060300 06015KT P6SM SKC FM061500 05015G25KT P6SM BKN200